Terminal Aerodrome Forecast
Issued by NWS

Home | Current Version | Previous Version | Text Only | Print | Product List | Glossary On
Versions: 1 2 3 4 5 6 7 8 9 10 11 12 13 14 15 16 17 18
000
FTUS45 KTWC 202337
TAFOLS
TAF
KOLS 202337Z 2100/2124 15006KT P6SM -SHRA SCT060 BKN100
     FM210200 12005KT P6SM SCT070 BKN100
     FM210900 VRB04KT P6SM FEW080 BKN120
     FM211900 30007KT P6SM VCSH SCT060 BKN120=

USA.gov is the U.S. government's official web portal to all federal, state and local government web resources and services.